Time;durP1;ratioP1;P1;durP2;ratioP2;P2;SDS_P1;SDS_P2;PMS_P1;PMS_P2;Temp;Humidity;BMP_temperature;BMP_pressure;BME280_temperature;BME280_humidity;BME280_pressure;Samples;Min_cycle;Max_cycle;Signal;HPM_P1;HPM_P2
2022/07/08 00:02:19;;;;;;;4.50;1.23;;;16.90;99.90;;;;;;5061951;28;20586;-82
2022/07/08 00:04:47;;;;;;;4.23;0.97;;;16.90;99.90;;;;;;5053103;28;21050;-81
2022/07/08 00:07:14;;;;;;;4.27;1.10;;;16.90;99.90;;;;;;5054411;28;21008;-82
2022/07/08 00:09:41;;;;;;;4.83;1.43;;;16.90;99.90;;;;;;5053623;28;21029;-82
2022/07/08 00:12:08;;;;;;;2.57;1.00;;;16.90;99.90;;;;;;5054126;28;20607;-82
2022/07/08 00:14:35;;;;;;;5.47;1.30;;;16.90;99.90;;;;;;5058206;28;20462;-82
2022/07/08 00:17:02;;;;;;;4.37;1.10;;;16.80;99.90;;;;;;5054008;28;20862;-82
2022/07/08 00:19:29;;;;;;;10.57;1.33;;;16.80;99.90;;;;;;5058356;28;20561;-82
2022/07/08 00:21:58;;;;;;;4.23;1.20;;;16.80;99.90;;;;;;5053347;28;20513;-83
2022/07/08 00:24:25;;;;;;;6.80;1.30;;;16.90;99.90;;;;;;5054542;28;20488;-82
2022/07/08 00:26:52;;;;;;;7.50;1.67;;;16.90;99.90;;;;;;5054027;28;20490;-82
2022/07/08 00:29:19;;;;;;;5.90;1.10;;;17.00;99.90;;;;;;5057812;28;20904;-82
2022/07/08 00:31:45;;;;;;;4.27;1.13;;;16.90;99.90;;;;;;5053776;28;20538;-82
2022/07/08 00:34:12;;;;;;;4.20;1.20;;;16.90;99.90;;;;;;5062710;28;20453;-84
2022/07/08 00:36:39;;;;;;;10.43;1.40;;;17.00;99.90;;;;;;5073554;28;20521;-84
2022/07/08 00:39:07;;;;;;;5.50;1.43;;;17.00;99.90;;;;;;5064890;28;20486;-83
2022/07/08 00:41:34;;;;;;;3.70;1.07;;;17.00;99.90;;;;;;5054892;28;20454;-83
2022/07/08 00:44:01;;;;;;;6.97;1.40;;;17.00;99.90;;;;;;5052977;28;20951;-83
2022/07/08 00:46:28;;;;;;;3.50;1.40;;;17.00;99.90;;;;;;5054272;28;20901;-84
2022/07/08 00:48:55;;;;;;;3.37;1.00;;;16.90;99.90;;;;;;5055342;28;20563;-84
2022/07/08 00:51:22;;;;;;;5.40;1.20;;;16.90;99.90;;;;;;5056857;28;20458;-82
2022/07/08 00:53:51;;;;;;;4.23;1.13;;;16.90;99.90;;;;;;5072898;28;20541;-82
2022/07/08 00:56:20;;;;;;;3.90;1.30;;;16.80;99.90;;;;;;5073405;28;22363;-83
2022/07/08 00:58:47;;;;;;;8.30;1.07;;;16.80;99.90;;;;;;5071458;28;20562;-83
2022/07/08 01:01:15;;;;;;;6.97;1.40;;;16.80;99.90;;;;;;5054170;28;20463;-82
2022/07/08 01:03:42;;;;;;;6.47;1.40;;;16.80;99.90;;;;;;5073343;28;20537;-82
2022/07/08 01:06:09;;;;;;;6.87;1.40;;;16.70;99.90;;;;;;5073084;28;21151;-81
2022/07/08 01:08:36;;;;;;;4.30;1.30;;;16.70;99.90;;;;;;5053241;28;20498;-82
2022/07/08 01:11:03;;;;;;;5.23;1.50;;;16.80;99.90;;;;;;5053432;28;20461;-82
2022/07/08 01:13:32;;;;;;;5.90;1.50;;;16.80;99.90;;;;;;5070385;28;20542;-82
2022/07/08 01:15:59;;;;;;;3.97;1.23;;;16.80;99.90;;;;;;5073174;28;20546;-82
2022/07/08 01:18:29;;;;;;;8.73;1.60;;;16.80;99.90;;;;;;5068973;28;20562;-82
2022/07/08 01:20:57;;;;;;;9.97;1.30;;;16.80;99.90;;;;;;5053763;28;20479;-83
2022/07/08 01:23:25;;;;;;;8.77;1.40;;;16.70;99.90;;;;;;5052410;28;20546;-82
2022/07/08 01:25:53;;;;;;;7.67;1.87;;;16.80;99.90;;;;;;5053532;28;20883;-82
2022/07/08 01:28:20;;;;;;;8.63;1.87;;;16.80;99.90;;;;;;5066170;28;20495;-84
2022/07/08 01:30:47;;;;;;;6.10;2.30;;;16.80;99.90;;;;;;5073636;28;20537;-81
2022/07/08 01:33:14;;;;;;;9.43;1.70;;;16.80;99.90;;;;;;5058732;28;20452;-82
2022/07/08 01:35:41;;;;;;;5.97;1.47;;;16.80;99.90;;;;;;5051883;28;20518;-82
2022/07/08 01:38:09;;;;;;;4.83;1.47;;;16.80;99.90;;;;;;5053068;28;20563;-82
2022/07/08 01:40:36;;;;;;;5.10;1.77;;;16.80;99.90;;;;;;5052709;28;20531;-82
2022/07/08 01:43:03;;;;;;;3.03;1.37;;;16.70;99.90;;;;;;5062215;28;20545;-83
2022/07/08 01:45:30;;;;;;;5.63;1.70;;;16.80;99.90;;;;;;5072828;28;20517;-81
2022/07/08 01:47:57;;;;;;;4.30;1.33;;;16.80;99.90;;;;;;5067904;28;20558;-82
2022/07/08 01:50:23;;;;;;;6.60;1.50;;;16.70;99.90;;;;;;5072046;28;20545;-82
2022/07/08 01:52:50;;;;;;;5.00;1.20;;;16.70;99.90;;;;;;5064201;28;20882;-82
2022/07/08 01:55:19;;;;;;;4.50;1.30;;;16.70;99.90;;;;;;5057651;28;20461;-82
2022/07/08 01:57:46;;;;;;;4.40;1.40;;;16.70;99.90;;;;;;5060932;28;20555;-79
2022/07/08 02:00:13;;;;;;;10.53;2.33;;;16.70;99.90;;;;;;5054088;28;20502;-79
2022/07/08 02:02:40;;;;;;;2.80;1.10;;;16.70;99.90;;;;;;5052517;28;20452;-80
2022/07/08 02:05:08;;;;;;;6.10;1.40;;;16.70;99.90;;;;;;5053015;28;20541;-81
2022/07/08 02:07:35;;;;;;;3.57;1.23;;;16.70;99.90;;;;;;5056101;28;20565;-81
2022/07/08 02:10:02;;;;;;;4.70;1.20;;;16.70;99.90;;;;;;5056685;28;21050;-82
2022/07/08 02:12:29;;;;;;;8.20;1.80;;;16.70;99.90;;;;;;5068316;28;20451;-82
2022/07/08 02:15:01;;;;;;;9.43;1.40;;;16.70;99.90;;;;;;5087720;28;20439;-82
2022/07/08 02:17:30;;;;;;;9.17;1.40;;;16.70;99.90;;;;;;5073934;28;20454;-82
2022/07/08 02:19:57;;;;;;;5.27;1.30;;;16.60;99.90;;;;;;5070295;28;20451;-82
2022/07/08 02:22:24;;;;;;;3.70;1.00;;;16.60;99.90;;;;;;5095778;22;20967;-80
2022/07/08 02:24:51;;;;;;;7.40;1.50;;;16.50;99.90;;;;;;5077288;28;20922;-80
2022/07/08 02:27:18;;;;;;;2.97;1.07;;;16.50;99.90;;;;;;5083816;28;20558;-80
2022/07/08 02:29:47;;;;;;;4.40;1.40;;;16.50;99.90;;;;;;5065898;28;20451;-80
2022/07/08 02:32:13;;;;;;;7.23;1.20;;;16.50;99.90;;;;;;5070681;28;20562;-80
2022/07/08 02:34:41;;;;;;;2.53;1.00;;;16.50;99.90;;;;;;5065063;28;20459;-81
2022/07/08 02:37:08;;;;;;;4.47;1.37;;;16.50;99.90;;;;;;5068630;28;20454;-80
2022/07/08 02:39:34;;;;;;;6.27;1.13;;;16.50;99.90;;;;;;5070284;28;20448;-80
2022/07/08 02:42:01;;;;;;;6.73;1.17;;;16.50;99.90;;;;;;5070108;28;20502;-80
2022/07/08 02:44:28;;;;;;;4.93;1.30;;;16.50;99.90;;;;;;5068848;28;20459;-79
2022/07/08 02:46:56;;;;;;;4.90;1.60;;;16.50;99.90;;;;;;5067900;28;20494;-80
2022/07/08 02:49:23;;;;;;;5.20;1.40;;;16.50;99.90;;;;;;5061209;28;20487;-81
2022/07/08 02:51:50;;;;;;;7.80;1.43;;;16.50;99.90;;;;;;5069446;28;20482;-81
2022/07/08 02:54:17;;;;;;;7.37;1.40;;;16.50;99.90;;;;;;5070725;28;20491;-80
2022/07/08 02:56:44;;;;;;;6.83;1.60;;;16.50;99.90;;;;;;5070445;28;21034;-81
2022/07/08 02:59:11;;;;;;;6.80;1.20;;;16.50;99.90;;;;;;5069749;28;20444;-79
2022/07/08 03:01:38;;;;;;;5.63;1.43;;;16.50;99.90;;;;;;5072234;28;20471;-81
2022/07/08 03:04:06;;;;;;;13.03;1.87;;;16.50;99.90;;;;;;5071205;28;20548;-81
2022/07/08 03:06:33;;;;;;;3.50;1.30;;;16.50;99.90;;;;;;5070998;28;20516;-82
2022/07/08 03:09:00;;;;;;;7.33;1.20;;;16.40;99.90;;;;;;5070842;28;20489;-79
2022/07/08 03:11:27;;;;;;;4.20;1.93;;;16.40;99.90;;;;;;5069843;28;20488;-81
2022/07/08 03:13:54;;;;;;;4.47;1.47;;;16.40;99.90;;;;;;5076142;28;20458;-80
2022/07/08 03:16:23;;;;;;;4.47;1.30;;;16.40;99.90;;;;;;5076226;28;20515;-80
2022/07/08 03:18:50;;;;;;;5.00;1.20;;;16.40;99.90;;;;;;5076176;28;20506;-80
2022/07/08 03:21:18;;;;;;;6.40;1.80;;;16.50;99.90;;;;;;5074920;28;20450;-80
2022/07/08 03:23:45;;;;;;;4.70;1.20;;;16.40;99.90;;;;;;5073196;28;20452;-79
2022/07/08 03:26:12;;;;;;;4.93;1.30;;;16.40;99.90;;;;;;5063343;28;20489;-80
2022/07/08 03:28:39;;;;;;;4.93;1.50;;;16.40;99.90;;;;;;5076492;28;20936;-80
2022/07/08 03:31:06;;;;;;;12.40;1.73;;;16.40;99.90;;;;;;5064292;28;20950;-80
2022/07/08 03:33:33;;;;;;;7.53;1.10;;;16.40;99.90;;;;;;5065396;28;20486;-80
2022/07/08 03:36:00;;;;;;;6.40;1.40;;;16.40;99.90;;;;;;5065964;28;20474;-80
2022/07/08 03:38:28;;;;;;;5.80;1.30;;;16.40;99.90;;;;;;5066070;28;20482;-80
2022/07/08 03:43:41;;;;;;;4.10;1.10;;;16.40;99.90;;;;;;5064517;28;20443;-82
2022/07/08 03:46:08;;;;;;;6.60;1.53;;;16.40;99.90;;;;;;5067261;28;20989;-85
2022/07/08 03:48:35;;;;;;;5.97;1.57;;;16.40;99.90;;;;;;5065375;28;20518;-85
2022/07/08 03:51:02;;;;;;;4.47;1.40;;;16.40;99.90;;;;;;5064885;28;20435;-87
2022/07/08 03:53:30;;;;;;;6.23;1.63;;;16.30;99.90;;;;;;5061262;28;20478;-84
2022/07/08 03:55:57;;;;;;;3.10;1.20;;;16.30;99.90;;;;;;5058447;28;20502;-85
2022/07/08 03:58:24;;;;;;;11.53;1.93;;;16.40;99.90;;;;;;5060931;28;20485;-84
2022/07/08 04:00:51;;;;;;;5.90;1.50;;;16.50;99.90;;;;;;5061192;28;20990;-84
2022/07/08 04:03:18;;;;;;;6.60;1.53;;;16.60;99.90;;;;;;5059498;28;20474;-81
2022/07/08 04:05:45;;;;;;;7.30;1.83;;;16.70;99.90;;;;;;5059875;28;20450;-82
2022/07/08 04:08:12;;;;;;;7.70;1.83;;;16.80;99.90;;;;;;5060678;28;20543;-80
2022/07/08 04:10:40;;;;;;;7.00;1.80;;;16.80;99.90;;;;;;5058137;28;20487;-80
2022/07/08 04:13:07;;;;;;;5.80;1.63;;;16.90;99.90;;;;;;5056215;28;20567;-80
2022/07/08 04:15:34;;;;;;;5.27;1.50;;;16.80;99.90;;;;;;5057299;28;20483;-81
2022/07/08 04:18:01;;;;;;;4.00;1.10;;;16.80;99.90;;;;;;5059386;28;20448;-82
2022/07/08 04:20:28;;;;;;;6.07;1.30;;;16.80;99.90;;;;;;5066625;28;20484;-80
2022/07/08 04:22:54;;;;;;;3.53;1.30;;;16.80;99.90;;;;;;5061477;28;20514;-80
2022/07/08 04:25:21;;;;;;;5.50;1.80;;;16.70;99.90;;;;;;5058460;28;20479;-81
2022/07/08 04:27:50;;;;;;;5.57;1.30;;;16.70;99.90;;;;;;5057086;28;20534;-81
2022/07/08 04:30:17;;;;;;;6.60;1.87;;;16.80;99.90;;;;;;5049367;28;20547;-81
2022/07/08 04:32:44;;;;;;;5.03;1.80;;;16.80;99.90;;;;;;5057154;28;20567;-82
2022/07/08 04:35:10;;;;;;;4.70;1.60;;;16.70;99.90;;;;;;5056125;28;20997;-80
2022/07/08 04:37:37;;;;;;;6.73;1.43;;;16.70;99.90;;;;;;5044296;28;20525;-81
2022/07/08 04:40:05;;;;;;;5.07;1.33;;;16.70;99.90;;;;;;5057137;28;20546;-80
2022/07/08 04:42:32;;;;;;;5.20;1.40;;;16.70;99.90;;;;;;5037485;28;20526;-81
2022/07/08 04:45:00;;;;;;;7.60;1.83;;;16.70;99.90;;;;;;5054455;28;20456;-79
2022/07/08 04:47:27;;;;;;;4.53;1.60;;;16.70;99.90;;;;;;5057159;28;20535;-80
2022/07/08 04:49:54;;;;;;;8.60;2.10;;;16.70;99.90;;;;;;5055930;28;20567;-81
2022/07/08 04:52:21;;;;;;;6.00;2.00;;;16.80;99.90;;;;;;5054288;28;20487;-81
2022/07/08 04:54:48;;;;;;;6.23;2.80;;;16.70;99.90;;;;;;5054075;28;20532;-79
2022/07/08 04:57:15;;;;;;;7.23;1.53;;;16.70;99.90;;;;;;5048954;28;20471;-80
2022/07/08 04:59:42;;;;;;;7.17;1.40;;;16.80;99.90;;;;;;5052110;28;20514;-81
2022/07/08 05:02:10;;;;;;;9.33;1.60;;;16.80;99.90;;;;;;5054741;28;20529;-81
2022/07/08 05:04:37;;;;;;;6.20;1.80;;;16.90;99.90;;;;;;5034184;28;20437;-80
2022/07/08 05:07:04;;;;;;;5.60;1.40;;;16.90;99.90;;;;;;5045063;28;20495;-80
2022/07/08 05:09:31;;;;;;;5.30;1.53;;;16.80;99.90;;;;;;5060362;28;20522;-82
2022/07/08 05:11:58;;;;;;;4.10;1.67;;;16.80;99.90;;;;;;5069291;28;20571;-80
2022/07/08 05:14:25;;;;;;;8.00;1.90;;;16.80;99.90;;;;;;5061671;28;20542;-81
2022/07/08 05:16:52;;;;;;;7.33;1.90;;;16.80;99.90;;;;;;5054362;28;20520;-81
2022/07/08 05:19:20;;;;;;;3.57;1.27;;;16.80;99.90;;;;;;5054484;28;20451;-81
2022/07/08 05:21:47;;;;;;;5.07;1.60;;;16.80;99.90;;;;;;5053403;28;20598;-81
2022/07/08 05:24:14;;;;;;;4.40;1.60;;;16.80;99.90;;;;;;5054278;28;20512;-82
2022/07/08 05:26:40;;;;;;;6.20;1.77;;;16.80;99.90;;;;;;5054180;28;20482;-80
2022/07/08 05:29:07;;;;;;;6.80;1.40;;;16.90;99.90;;;;;;5054989;28;20638;-83
2022/07/08 05:31:34;;;;;;;5.90;1.57;;;16.90;99.90;;;;;;5054603;28;20515;-80
2022/07/08 05:34:01;;;;;;;4.60;1.33;;;16.90;99.90;;;;;;5055361;28;20506;-80
2022/07/08 05:36:30;;;;;;;6.47;1.40;;;17.00;99.90;;;;;;5055367;28;20463;-82
2022/07/08 05:38:57;;;;;;;4.00;1.27;;;17.00;99.90;;;;;;5058213;28;20480;-81
2022/07/08 05:41:24;;;;;;;6.67;1.97;;;17.00;99.90;;;;;;5054533;28;20537;-82
2022/07/08 05:43:51;;;;;;;7.40;1.33;;;17.10;99.90;;;;;;5049699;28;20463;-83
2022/07/08 05:46:18;;;;;;;6.00;1.50;;;17.20;99.90;;;;;;5057240;28;20475;-80
2022/07/08 05:48:45;;;;;;;4.50;1.40;;;17.20;99.90;;;;;;5058677;28;20526;-79
2022/07/08 05:51:11;;;;;;;6.07;1.23;;;17.20;99.90;;;;;;5052170;28;20449;-81
2022/07/08 05:53:40;;;;;;;4.73;1.30;;;17.20;99.90;;;;;;5050498;28;20578;-84
2022/07/08 05:56:07;;;;;;;7.73;1.30;;;17.10;99.90;;;;;;5054259;28;20838;-83
2022/07/08 05:58:34;;;;;;;4.23;1.20;;;17.10;99.90;;;;;;5058461;28;20511;-80
2022/07/08 06:01:01;;;;;;;4.70;1.37;;;17.10;99.90;;;;;;5055476;28;20551;-82
2022/07/08 06:03:28;;;;;;;6.47;1.77;;;17.10;99.90;;;;;;5058923;28;20483;-81
2022/07/08 06:05:55;;;;;;;5.73;1.70;;;17.10;99.90;;;;;;5053951;28;20455;-82
2022/07/08 06:08:22;;;;;;;5.40;2.03;;;17.10;99.90;;;;;;5056616;28;20582;-80
2022/07/08 06:10:50;;;;;;;5.33;1.50;;;17.00;99.90;;;;;;5050444;28;20456;-81
2022/07/08 06:13:17;;;;;;;7.23;1.37;;;17.00;99.90;;;;;;5050696;28;20508;-80
2022/07/08 06:15:44;;;;;;;4.90;1.73;;;16.90;99.90;;;;;;5055190;28;20906;-82
2022/07/08 06:18:11;;;;;;;4.70;1.57;;;17.00;99.90;;;;;;5052749;28;20921;-81
2022/07/08 06:20:38;;;;;;;7.07;1.30;;;17.00;99.90;;;;;;5050054;28;20538;-82
2022/07/08 06:23:05;;;;;;;2.43;1.00;;;17.10;99.90;;;;;;5048563;28;21010;-80
2022/07/08 06:25:32;;;;;;;7.97;1.40;;;17.10;99.90;;;;;;5054890;28;20538;-80
2022/07/08 06:28:00;;;;;;;6.63;1.80;;;17.10;99.90;;;;;;5053315;28;20864;-79
2022/07/08 06:30:27;;;;;;;5.70;1.37;;;17.20;99.90;;;;;;5051557;28;20570;-81
2022/07/08 06:32:54;;;;;;;7.93;1.80;;;17.20;99.90;;;;;;5049446;28;20481;-80
2022/07/08 06:35:21;;;;;;;6.20;2.03;;;17.20;99.90;;;;;;5049421;28;20448;-80
2022/07/08 06:37:48;;;;;;;8.73;1.50;;;17.30;99.90;;;;;;5055153;28;20534;-80
2022/07/08 06:40:15;;;;;;;7.50;1.30;;;17.30;99.90;;;;;;5048475;28;20967;-81
2022/07/08 06:42:42;;;;;;;6.07;1.43;;;17.50;99.90;;;;;;5047032;28;20864;-81
2022/07/08 06:45:11;;;;;;;5.53;1.00;;;17.50;99.90;;;;;;5051576;28;20496;-81
2022/07/08 06:47:37;;;;;;;4.33;1.70;;;17.60;99.90;;;;;;5050395;28;20499;-80
2022/07/08 06:50:06;;;;;;;4.67;1.50;;;17.70;99.90;;;;;;5051107;28;20573;-80
2022/07/08 06:52:33;;;;;;;6.30;1.20;;;17.70;99.90;;;;;;5054477;28;20698;-81
2022/07/08 06:55:00;;;;;;;5.90;1.73;;;17.70;99.90;;;;;;5048361;28;20456;-82
2022/07/08 06:57:27;;;;;;;3.10;1.13;;;17.50;99.90;;;;;;5049424;28;20520;-80
2022/07/08 06:59:54;;;;;;;4.20;1.47;;;17.50;99.90;;;;;;5061851;28;20523;-80
2022/07/08 07:02:23;;;;;;;3.20;1.40;;;17.40;99.90;;;;;;5056886;28;20512;-80
2022/07/08 07:04:50;;;;;;;3.20;1.17;;;17.40;99.90;;;;;;5057687;28;20487;-79
2022/07/08 07:07:17;;;;;;;4.80;1.40;;;17.50;99.90;;;;;;5056339;28;20540;-79
2022/07/08 07:09:43;;;;;;;4.33;1.20;;;17.50;99.90;;;;;;5061282;28;20577;-81
2022/07/08 07:12:10;;;;;;;6.47;1.37;;;17.40;99.90;;;;;;5059782;28;20508;-79
2022/07/08 07:14:37;;;;;;;6.03;1.40;;;17.40;99.90;;;;;;5048153;28;20469;-79
2022/07/08 07:17:04;;;;;;;3.80;1.20;;;17.50;99.90;;;;;;5067531;28;20526;-81
2022/07/08 07:19:33;;;;;;;7.60;1.20;;;17.50;99.90;;;;;;5056149;28;20454;-80
2022/07/08 07:22:03;;;;;;;7.70;1.70;;;17.60;99.90;;;;;;5046749;28;21092;-79
2022/07/08 07:24:30;;;;;;;6.03;1.53;;;17.50;99.90;;;;;;5052454;28;20490;-81
2022/07/08 07:26:56;;;;;;;4.60;1.40;;;17.50;99.90;;;;;;5055578;28;20900;-81
2022/07/08 07:29:23;;;;;;;5.33;1.60;;;17.60;99.90;;;;;;5054643;28;20522;-80
2022/07/08 07:31:59;;;;;;;4.20;1.30;;;17.60;99.90;;;;;;5058354;28;20513;-82
2022/07/08 07:34:26;;;;;;;11.93;2.00;;;17.60;99.90;;;;;;5052133;28;20459;-81
2022/07/08 07:36:54;;;;;;;6.37;1.67;;;17.70;99.90;;;;;;5055043;28;20890;-79
2022/07/08 07:39:21;;;;;;;8.23;1.83;;;17.60;99.90;;;;;;5051917;28;20452;-82
2022/07/08 07:41:48;;;;;;;5.80;1.60;;;17.70;99.90;;;;;;5059508;28;20499;-82
2022/07/08 07:44:15;;;;;;;3.60;1.47;;;17.80;99.90;;;;;;5053373;28;20482;-81
2022/07/08 07:46:42;;;;;;;4.83;1.33;;;17.80;99.90;;;;;;5047255;28;21179;-81
2022/07/08 07:49:09;;;;;;;4.80;1.37;;;18.00;99.90;;;;;;5046755;28;20495;-84
2022/07/08 07:51:36;;;;;;;5.97;2.00;;;18.20;99.90;;;;;;5047159;28;20505;-80
2022/07/08 07:54:04;;;;;;;4.63;1.70;;;18.40;99.90;;;;;;5044756;28;20454;-80
2022/07/08 07:56:31;;;;;;;4.23;1.10;;;18.50;99.90;;;;;;5053618;28;20943;-80
2022/07/08 07:58:58;;;;;;;4.33;1.40;;;18.80;99.90;;;;;;5059889;28;21140;-82
2022/07/08 08:01:25;;;;;;;3.80;1.20;;;19.00;99.90;;;;;;5050084;28;20552;-81
2022/07/08 08:03:52;;;;;;;6.93;1.67;;;19.30;99.90;;;;;;5046718;28;20909;-81
2022/07/08 08:06:19;;;;;;;6.63;1.67;;;19.50;99.90;;;;;;5048700;28;20567;-80
2022/07/08 08:08:45;;;;;;;5.97;1.30;;;19.70;99.90;;;;;;5048485;28;21035;-80
2022/07/08 08:11:14;;;;;;;8.53;1.73;;;19.80;99.90;;;;;;5045604;28;20902;-82
2022/07/08 08:13:41;;;;;;;10.57;1.90;;;19.70;99.90;;;;;;5053990;28;20479;-81
2022/07/08 08:16:08;;;;;;;4.73;1.23;;;19.70;99.90;;;;;;5059793;28;20513;-79
2022/07/08 08:18:35;;;;;;;6.13;1.73;;;19.80;99.90;;;;;;5056133;28;20460;-80
2022/07/08 08:21:02;;;;;;;3.43;1.47;;;19.80;99.90;;;;;;5052498;28;20559;-80
2022/07/08 08:23:29;;;;;;;3.40;1.17;;;19.70;99.90;;;;;;5067173;28;20907;-81
2022/07/08 08:25:56;;;;;;;8.73;1.60;;;19.90;99.90;;;;;;5056339;28;20548;-82
2022/07/08 08:28:24;;;;;;;4.93;1.70;;;20.20;99.90;;;;;;5068700;28;20428;-80
2022/07/08 08:30:51;;;;;;;8.20;2.23;;;20.50;99.90;;;;;;5073579;28;20521;-82
2022/07/08 08:33:18;;;;;;;6.37;1.60;;;20.70;99.90;;;;;;5040303;28;20574;-82
2022/07/08 08:35:45;;;;;;;7.87;1.30;;;20.90;99.90;;;;;;5062918;28;20472;-82
2022/07/08 08:38:12;;;;;;;6.77;1.93;;;21.30;99.90;;;;;;5043809;28;20479;-81
2022/07/08 08:40:42;;;;;;;4.20;1.60;;;21.30;99.90;;;;;;5045352;28;20448;-82
2022/07/08 08:43:09;;;;;;;4.73;1.47;;;21.10;99.90;;;;;;5052150;28;20508;-81
2022/07/08 08:45:39;;;;;;;4.40;1.23;;;21.10;99.90;;;;;;5047607;28;20462;-81
2022/07/08 08:48:08;;;;;;;4.47;1.30;;;21.20;99.90;;;;;;5048829;28;20475;-82
2022/07/08 08:50:57;;;;;;;4.90;1.17;;;21.30;99.90;;;;;;5034671;28;20867;-81
2022/07/08 08:53:27;;;;;;;4.43;1.93;;;21.40;99.90;;;;;;5040516;28;20515;-81
2022/07/08 08:55:55;;;;;;;6.83;1.60;;;21.40;99.90;;;;;;5039890;28;20529;-81
2022/07/08 08:58:23;;;;;;;5.83;1.60;;;21.70;99.90;;;;;;5046486;28;20550;-82
2022/07/08 09:00:51;;;;;;;5.50;1.77;;;22.00;99.90;;;;;;5054461;28;20555;-81
2022/07/08 09:03:18;;;;;;;11.83;2.90;;;22.10;99.90;;;;;;5052109;28;21013;-81
2022/07/08 09:05:45;;;;;;;5.17;1.53;;;22.20;99.90;;;;;;5046934;28;20488;-78
2022/07/08 09:08:12;;;;;;;4.40;1.30;;;22.40;99.90;;;;;;5048730;28;20464;-79
2022/07/08 09:10:39;;;;;;;3.17;1.20;;;22.60;99.90;;;;;;5047809;28;20527;-80
2022/07/08 09:13:10;;;;;;;7.10;1.40;;;22.60;99.90;;;;;;5049463;28;20475;-81
2022/07/08 09:15:38;;;;;;;4.57;1.73;;;22.70;99.90;;;;;;5050491;28;20514;-80
2022/07/08 09:18:09;;;;;;;5.07;1.60;;;23.00;99.90;;;;;;5053871;28;20531;-80
2022/07/08 09:20:49;;;;;;;5.67;1.67;;;23.10;99.90;;;;;;5055835;28;20443;-80
2022/07/08 09:23:19;;;;;;;7.40;1.70;;;23.50;99.90;;;;;;5057266;28;20475;-82
2022/07/08 09:25:49;;;;;;;5.93;1.33;;;23.60;99.90;;;;;;5051386;28;21126;-82
2022/07/08 09:28:17;;;;;;;4.87;1.50;;;23.60;99.90;;;;;;5052394;28;20445;-80
2022/07/08 09:30:44;;;;;;;6.40;1.33;;;23.60;99.90;;;;;;5051072;28;20527;-81
2022/07/08 09:33:13;;;;;;;3.70;1.60;;;23.30;99.90;;;;;;5049272;28;20499;-82
2022/07/08 09:35:44;;;;;;;5.53;1.30;;;23.40;99.90;;;;;;5054184;28;20539;-81
2022/07/08 09:38:12;;;;;;;6.97;1.30;;;23.40;99.90;;;;;;5058989;28;20555;-81
2022/07/08 09:40:39;;;;;;;6.57;2.03;;;23.50;99.90;;;;;;5053255;28;20447;-82
2022/07/08 09:43:14;;;;;;;4.70;1.60;;;23.50;99.90;;;;;;5044438;28;20482;-81
2022/07/08 09:45:41;;;;;;;6.00;1.67;;;23.30;99.90;;;;;;5037184;28;20904;-81
2022/07/08 09:48:09;;;;;;;5.30;1.50;;;23.20;99.90;;;;;;5050869;28;20444;-82
2022/07/08 09:50:40;;;;;;;7.67;2.17;;;23.10;99.90;;;;;;5033959;28;20488;-82
2022/07/08 09:53:17;;;;;;;4.37;1.50;;;23.00;99.90;;;;;;5043856;28;20769;-80
2022/07/08 09:55:47;;;;;;;9.17;1.90;;;23.00;99.90;;;;;;5053860;28;20443;-81
2022/07/08 09:58:15;;;;;;;3.10;1.23;;;22.90;99.90;;;;;;5046562;28;20457;-82
2022/07/08 10:00:45;;;;;;;2.70;1.10;;;23.10;99.90;;;;;;5049016;28;20501;-81
2022/07/08 10:03:12;;;;;;;5.83;1.40;;;23.70;99.90;;;;;;5049175;28;20510;-80
2022/07/08 10:05:44;;;;;;;4.60;1.40;;;23.70;99.90;;;;;;5048173;28;20543;-81
2022/07/08 10:08:12;;;;;;;7.60;1.30;;;23.90;99.90;;;;;;5047775;28;20947;-81
2022/07/08 10:10:41;;;;;;;3.47;1.93;;;24.00;99.90;;;;;;5048205;28;20523;-80
2022/07/08 10:13:07;;;;;;;4.93;1.33;;;24.00;99.90;;;;;;5046815;28;21007;-81
2022/07/08 10:15:36;;;;;;;4.30;1.20;;;24.00;99.90;;;;;;5049283;28;20490;-81
2022/07/08 10:18:11;;;;;;;4.10;1.33;;;23.90;99.90;;;;;;5046093;28;20460;-82
2022/07/08 10:20:43;;;;;;;8.27;2.03;;;24.10;99.90;;;;;;5069636;28;20453;-82
2022/07/08 10:23:16;;;;;;;5.03;1.50;;;24.10;99.90;;;;;;5051576;28;20490;-81
2022/07/08 10:25:44;;;;;;;3.63;1.30;;;24.20;99.90;;;;;;5045467;28;20453;-81
2022/07/08 10:28:11;;;;;;;6.17;1.70;;;24.10;99.90;;;;;;5052121;28;20456;-82
2022/07/08 10:30:47;;;;;;;5.13;1.70;;;24.60;99.90;;;;;;5064670;28;20479;-82
2022/07/08 10:33:24;;;;;;;6.60;1.60;;;25.20;99.90;;;;;;5057233;28;20513;-81
2022/07/08 10:36:09;;;;;;;6.83;1.30;;;25.50;99.90;;;;;;5070770;28;20457;-82
2022/07/08 10:38:38;;;;;;;4.07;1.40;;;26.00;99.90;;;;;;5077841;28;20506;-81
2022/07/08 10:41:09;;;;;;;3.10;1.30;;;26.10;99.90;;;;;;5065702;28;20526;-82
2022/07/08 10:43:36;;;;;;;5.60;1.20;;;26.00;99.90;;;;;;5057174;28;20458;-81
2022/07/08 10:46:15;;;;;;;6.57;1.20;;;25.30;99.90;;;;;;5075081;28;20458;-80
2022/07/08 10:49:00;;;;;;;4.60;1.57;;;25.10;99.90;;;;;;5063824;28;20501;-82
2022/07/08 10:51:47;;;;;;;6.90;1.73;;;24.60;99.90;;;;;;5071011;28;20483;-82
2022/07/08 10:54:42;;;;;;;4.70;1.50;;;24.20;99.90;;;;;;5060252;28;20448;-81
2022/07/08 10:57:14;;;;;;;3.33;1.17;;;23.90;99.90;;;;;;5065288;28;20518;-80
2022/07/08 10:59:42;;;;;;;5.23;1.20;;;23.80;99.90;;;;;;5063171;28;20451;-80
2022/07/08 11:02:11;;;;;;;4.10;1.23;;;23.80;99.90;;;;;;5063335;28;20464;-82
2022/07/08 11:04:51;;;;;;;4.27;1.70;;;23.60;99.90;;;;;;5059482;28;20443;-81
2022/07/08 11:07:30;;;;;;;4.47;1.10;;;23.40;99.90;;;;;;5054674;28;20437;-82
2022/07/08 11:10:02;;;;;;;8.70;1.43;;;23.40;99.90;;;;;;5062170;28;20491;-82
2022/07/08 11:12:30;;;;;;;5.00;1.50;;;23.30;99.90;;;;;;5062311;28;20472;-82
2022/07/08 11:14:58;;;;;;;3.67;1.40;;;23.50;99.90;;;;;;5068969;28;20447;-82
2022/07/08 11:17:27;;;;;;;5.30;1.50;;;23.70;99.90;;;;;;5079156;28;20475;-80
2022/07/08 11:19:55;;;;;;;3.77;1.10;;;23.90;99.90;;;;;;5065830;28;20424;-82
2022/07/08 11:22:23;;;;;;;5.90;1.57;;;24.10;99.90;;;;;;5071620;28;20518;-82
2022/07/08 11:24:52;;;;;;;2.87;1.17;;;24.20;99.90;;;;;;5075325;28;20479;-82
2022/07/08 11:27:23;;;;;;;6.70;1.60;;;24.20;99.90;;;;;;5067139;28;20455;-82
2022/07/08 11:29:52;;;;;;;5.10;1.50;;;24.00;99.90;;;;;;5066370;28;20452;-82
2022/07/08 11:32:20;;;;;;;3.80;1.17;;;24.00;99.90;;;;;;5068373;28;20472;-82
2022/07/08 11:34:47;;;;;;;6.07;1.30;;;24.00;99.90;;;;;;5067770;28;20490;-81
2022/07/08 11:37:15;;;;;;;5.70;1.70;;;24.10;99.90;;;;;;5066923;28;20456;-81
2022/07/08 11:39:43;;;;;;;4.77;1.70;;;24.30;99.90;;;;;;5063903;28;20456;-82
2022/07/08 11:42:12;;;;;;;6.87;1.50;;;24.50;99.90;;;;;;5054973;28;20476;-82
2022/07/08 11:44:40;;;;;;;4.33;1.30;;;24.60;99.90;;;;;;5060186;28;20464;-82
2022/07/08 11:47:07;;;;;;;5.73;1.50;;;24.70;99.90;;;;;;5062644;28;20452;-82
2022/07/08 11:49:41;;;;;;;5.70;2.13;;;24.80;99.90;;;;;;5071393;28;20444;-80
2022/07/08 11:52:07;;;;;;;3.17;1.57;;;24.60;99.90;;;;;;5067428;28;20492;-82
2022/07/08 11:54:34;;;;;;;6.77;1.60;;;24.30;99.90;;;;;;5060854;28;20797;-81
2022/07/08 11:57:03;;;;;;;5.50;1.33;;;24.40;99.90;;;;;;5053727;28;20702;-82
2022/07/08 11:59:34;;;;;;;3.80;1.50;;;24.40;99.90;;;;;;5059814;28;20496;-82
2022/07/08 12:02:02;;;;;;;4.80;1.40;;;24.30;99.90;;;;;;5074612;28;20467;-81
2022/07/08 12:04:29;;;;;;;6.20;1.97;;;24.40;99.90;;;;;;5059757;28;20451;-82
2022/07/08 12:06:59;;;;;;;3.10;1.53;;;24.30;99.90;;;;;;5062785;28;20456;-83
2022/07/08 12:09:27;;;;;;;5.20;1.77;;;24.30;99.90;;;;;;5064507;28;20445;-83
2022/07/08 12:11:56;;;;;;;5.27;1.40;;;24.30;99.90;;;;;;5057676;28;20498;-82
2022/07/08 12:14:24;;;;;;;3.10;1.20;;;24.40;99.90;;;;;;5064957;28;20463;-83
2022/07/08 12:16:53;;;;;;;3.60;1.33;;;24.20;99.90;;;;;;5069466;28;20462;-82
2022/07/08 12:19:30;;;;;;;7.50;1.77;;;24.20;99.90;;;;;;5070396;28;20897;-83
2022/07/08 12:21:59;;;;;;;5.30;1.30;;;24.30;99.90;;;;;;5071221;28;20526;-83
2022/07/08 12:24:28;;;;;;;5.17;1.50;;;24.50;99.90;;;;;;5075557;28;20448;-82
2022/07/08 12:26:59;;;;;;;4.93;1.50;;;24.40;99.90;;;;;;5077924;28;20439;-84
2022/07/08 12:29:27;;;;;;;3.77;1.40;;;24.50;99.90;;;;;;5081771;28;20435;-82
2022/07/08 12:31:55;;;;;;;5.13;1.47;;;24.50;99.90;;;;;;5064252;28;20481;-83
2022/07/08 12:34:23;;;;;;;3.30;1.33;;;24.60;99.90;;;;;;5071503;28;20448;-83
2022/07/08 12:36:51;;;;;;;3.97;1.70;;;24.70;99.90;;;;;;5072240;28;20497;-81
2022/07/08 12:39:20;;;;;;;3.97;1.10;;;24.90;99.90;;;;;;5067760;28;20506;-82
2022/07/08 12:41:59;;;;;;;3.90;1.50;;;25.00;99.90;;;;;;5070143;28;20457;-81
2022/07/08 12:44:39;;;;;;;3.53;1.30;;;25.30;99.90;;;;;;5068332;28;20467;-81
2022/07/08 12:47:08;;;;;;;2.77;0.90;;;25.30;99.90;;;;;;5062997;28;20860;-82
2022/07/08 12:49:37;;;;;;;4.13;1.43;;;25.30;99.90;;;;;;5053393;28;20460;-81
2022/07/08 12:52:06;;;;;;;3.90;1.43;;;25.50;99.90;;;;;;5055234;28;21035;-82
2022/07/08 12:54:34;;;;;;;4.80;1.40;;;25.90;99.90;;;;;;5056709;28;20460;-83